I BIEG KRYNICKI - 10KM

Wydarzenie/ Event:
Organizator/ Organizer:
Fundacja Silni Ciałem Niezłomni Duchem; Sportevo Triathlon Team
Data/ Date:
2018-05-05
Miejsce/ Place:
Krynica Morska
Dystans/ Distance:
10 km
Zgłoszonych/ Registered:
64
Wystartowało/ Started:
61
Nie ukończyło/ Not finished:
0
Ukończyło/ Finished:
61
Na trasie/ On track:
0

Klasyfikacja/ Classiffication: M-Open

Pełne wyniki/ Full Results : PDF | CSV
Wyniki uproszczone/ Simple results : PDF | PDF2 | CSV
 
Klasyfikacje w punktach pomiarowych/ Classification for time points: Meta
Klasyfikacje wg kategorii/ Classification by category: Wszyscy | K-Open | M-Open | K18-29 | M18-29 | K30-39 | M30-39 | K40-49 | M40-49 | K50-59 | M50-59 | K60-69 | M60-69 | K70+ | M70+

Msc/ RnkZawodnik/ NameNumer/ BibKlub/ TeamMiejscowość/ CityKraj/ CountryKategoria/ CategoryMkat/ CatRnkK/M/ W/MCzas
netto
10km
Różn/ GapTempo
min/km
Tempo
km/h
     
1BAGROWSKI Tomasz 4RADOŚĆ BIEGANIAGDAŃSKM30-391M 100:34:35.10 3:2717.3
2RAKOCZY Marcin 89GDYNIAM18-291M 200:35:47.05+00:01:113:3416.8
3GODLEWSKI Łukasz 21GODLEWSKI RUNNERSMALBORKM30-392M 300:36:03.20+00:01:283:3616.6
4LEWOCHA Rafał 46WOŻNIAK RUNNING TEAMJASTRZĄBM30-393M 400:36:35.20+00:02:003:3916.4
5BRZEZIŃSKI Andrzej 10RYKOWISKONOWA BIAŁAM40-491M 500:38:56.15+00:04:213:5315.4
6CHUDEWNIAK Tomasz 12WILKIŻUŁAWSKIEJUNOSZYNOM18-292M 600:39:22.45+00:04:473:5615.2
7GRADZI Dariusz 114KRAKÓWM30-394M 700:40:49.25+00:06:144:0414.7
8KUBILUS Robert 43BIEGAMYRAZEM.PL&FRYZJERZY Z GARNIZONURUMIAM40-492M 800:40:51.65+00:06:164:0514.7
9KOWALSKI Jacek 40ELAKTYWNY MARATOŃCZYK TEAMELBLĄGM40-493M 900:40:57.80+00:06:224:0514.6
10SANECKI Piotr 105KS BIEGAM BO LUBIĘ PASŁĘKPASŁĘKM30-395M 1000:41:42.05+00:07:064:1014.4
11KOS Sławomir 39DCT DRUŻYNA BIEGOWANOWY DWÓR GDAŃSKI/ORŁOWOM40-494M 1100:41:46.45+00:07:114:1014.4
12SOBIESIAK Gabriel 66JUSZKOWOM40-495M 1200:42:09.60+00:07:344:1314.2
13MICHALSKI Dominik 52DZIAŁDOWOM18-293M 1300:42:38.80+00:08:034:1514.1
14BŁASZAK Roman 8MALBORKM40-496M 1400:43:06.85+00:08:314:1813.9
15STĘPIEŃ Adam 71ANANASYWARSZAWAM30-396M 1500:43:12.80+00:08:374:1913.9
16GORĄCY Marcin 22ROSSBIEGANIŁÓDŹM30-397M 1600:43:55.35+00:09:204:2313.7
17WLIZŁO Paweł 86MUZEUM W ELBLĄGUELBLĄGM18-294M 1700:45:21.05+00:10:454:3213.2
18SOKÓŁ Sebastian 67JARZYNKAPASŁĘKM18-295M 1800:45:25.55+00:10:504:3213.2
19PŁODZICKI Tomek 56IŁAWA BIEGAIŁAWAM30-398M 1900:45:36.15+00:11:014:3313.2
20WASZKIEWICZ Marcin 109SĄ WOLNIEJSIOLSZTYNM30-399M 2000:45:54.95+00:11:194:3513.1
21HAJDUK Mieczysław 29ANGELAELBLĄGM40-497M 2100:46:06.30+00:11:314:3613
22SWAJDA Krzysztof 74WILKI ŻUŁAWSKIESTEGNAM40-498M 2200:46:35.50+00:12:004:3912.9
23LIBAN Zygfryd 47BIEGAJACYTCZEW83-110TCZEWM70+1M 2300:47:25.60+00:12:504:4412.6
24SUSZYŃSKI Michał 73MALBORKM18-296M 2400:47:45.20+00:13:104:4612.6
25ROGULSKI Rafał 111KĘTRZYNM40-499M 2500:47:51.60+00:13:164:4712.5
26FURTAK Arkadiusz 17SZTUTOWOM50-591M 2600:48:22.05+00:13:464:5012.4
27CZEREMAŃSKI Rafał 15KB IM. P. SĘKOWSKIEGOPŁOŃSKM30-3910M 2700:48:26.65+00:13:514:5012.4
28DĄBROWSKI Krzysztof 110GDAŃSKM40-4910M 2800:48:42.30+00:14:074:5212.3
29WURMAŃSKI Wiktor 87RC WURMANSCYKIELCEM30-3911M 2900:48:42.75+00:14:074:5212.3
30KUSTRA Łukasz 117STREETRUN RADOMRADOMM30-3912M 3000:50:26.20+00:15:515:0211.9
31BARANOWSKI Maciej 6KS PIDRINA GDYNIAGDAŃSKM40-4911M 3100:50:30.55+00:15:555:0311.9
32WŁADYMIRUK Dariusz 93PRUSZCZ BIEGA/STRASZYN BIEGAPRUSZCZ GDAŃSKIM30-3913M 3200:52:14.60+00:17:395:1311.5
33KARCZEWSKI Andrzej 36SZTUTOWOM40-4912M 3300:52:22.40+00:17:475:1411.5
34SZKLARSKI Andrzej 79ELBLĄGM40-4913M 3400:53:01.90+00:18:265:1811.3
35LENKIEWICZ Ryszard 45MARATONYPOLSKIE.PL TEAMGDAŃSKM60-691M 3500:53:53.15+00:19:185:2311.1
36SOWA Sylwek 69IKS ATAK ELBLĄGELBLĄGM40-4914M 3600:54:06.45+00:19:315:2411.1
37LEDZION Hubert 95SOCHACZEWM30-3914M 3700:54:20.20+00:19:455:2611
38GOS Jan 24MALBORKM40-4915M 3800:54:25.40+00:19:505:2611
39WALKIEWICZ Bartłomiej 101WISŁAM30-3915M 3900:55:18.00+00:20:425:3110.8
40GNYP Daniel 20RÓŻYNYM40-4916M 4000:56:56.35+00:22:215:4110.5
41ZAMBRZYCKI Tomasz 115GDYNIAM40-4917M 4100:58:04.00+00:23:285:4810.3
42IZAK Wojciech 31WILLA CHABROWAWARSZAWAM18-297M 4200:59:19.25+00:24:445:5510.1
43KOZIARA Grzegorz 41SREBRNI BIEGACZE TARNOWSKIE GÓRYTARNOWSKIE GÓRYM60-692M 4300:59:51.35+00:25:165:5910
Znaleziono 43 wynik(ów)